sensor_id;sensor_type;location;lat;lon;timestamp;pressure;altitude;pressure_sealevel;temperature;humidity
67099;BME280;54288;53.046;5.668;2023-09-12T00:01:07;101389.47;;;21.77;100.00
67099;BME280;54288;53.046;5.668;2023-09-12T00:03:34;101383.13;;;21.79;100.00
67099;BME280;54288;53.046;5.668;2023-09-12T00:06:02;101400.06;;;21.78;100.00
67099;BME280;54288;53.046;5.668;2023-09-12T00:08:28;101403.50;;;21.80;100.00
67099;BME280;54288;53.046;5.668;2023-09-12T00:11:08;101396.59;;;21.76;100.00
67099;BME280;54288;53.046;5.668;2023-09-12T00:13:38;101405.47;;;21.77;100.00
67099;BME280;54288;53.046;5.668;2023-09-12T00:16:03;101408.22;;;21.75;100.00
67099;BME280;54288;53.046;5.668;2023-09-12T00:18:31;101399.53;;;21.72;100.00
67099;BME280;54288;53.046;5.668;2023-09-12T00:20:56;101376.97;;;21.62;100.00
67099;BME280;54288;53.046;5.668;2023-09-12T00:23:24;101399.53;;;21.72;100.00
67099;BME280;54288;53.046;5.668;2023-09-12T00:25:51;101397.84;;;21.71;100.00
67099;BME280;54288;53.046;5.668;2023-09-12T00:28:20;101398.00;;;21.68;100.00
67099;BME280;54288;53.046;5.668;2023-09-12T00:30:45;101402.09;;;21.58;100.00
67099;BME280;54288;53.046;5.668;2023-09-12T00:33:11;101398.75;;;21.54;100.00
67099;BME280;54288;53.046;5.668;2023-09-12T00:35:37;101396.94;;;21.55;100.00
67099;BME280;54288;53.046;5.668;2023-09-12T00:38:03;101376.81;;;21.49;100.00
67099;BME280;54288;53.046;5.668;2023-09-12T00:40:29;101383.78;;;21.52;100.00
67099;BME280;54288;53.046;5.668;2023-09-12T00:42:55;101377.53;;;21.53;100.00
67099;BME280;54288;53.046;5.668;2023-09-12T00:45:21;101384.56;;;21.54;100.00
67099;BME280;54288;53.046;5.668;2023-09-12T00:47:48;101391.69;;;21.53;100.00
67099;BME280;54288;53.046;5.668;2023-09-12T00:50:17;101380.19;;;21.53;100.00
67099;BME280;54288;53.046;5.668;2023-09-12T00:52:45;101371.31;;;21.52;100.00
67099;BME280;54288;53.046;5.668;2023-09-12T00:55:11;101358.44;;;21.45;100.00
67099;BME280;54288;53.046;5.668;2023-09-12T00:57:37;101355.69;;;21.46;100.00
67099;BME280;54288;53.046;5.668;2023-09-12T01:00:04;101361.38;;;21.40;100.00
67099;BME280;54288;53.046;5.668;2023-09-12T01:02:41;101357.06;;;21.38;100.00
67099;BME280;54288;53.046;5.668;2023-09-12T01:05:08;101357.00;;;21.39;100.00
67099;BME280;54288;53.046;5.668;2023-09-12T01:07:39;101355.16;;;21.40;100.00
67099;BME280;54288;53.046;5.668;2023-09-12T01:10:05;101347.44;;;21.35;100.00
67099;BME280;54288;53.046;5.668;2023-09-12T01:12:31;101365.06;;;21.38;100.00
67099;BME280;54288;53.046;5.668;2023-09-12T01:14:57;101368.91;;;21.32;100.00
67099;BME280;54288;53.046;5.668;2023-09-12T01:17:24;101376.91;;;21.32;100.00
67099;BME280;54288;53.046;5.668;2023-09-12T01:19:50;101368.22;;;21.29;100.00
67099;BME280;54288;53.046;5.668;2023-09-12T01:27:52;101358.34;;;21.15;100.00
67099;BME280;54288;53.046;5.668;2023-09-12T01:30:21;101355.88;;;21.12;100.00
67099;BME280;54288;53.046;5.668;2023-09-12T01:32:48;101353.28;;;21.11;100.00
67099;BME280;54288;53.046;5.668;2023-09-12T01:35:15;101360.50;;;21.09;100.00
67099;BME280;54288;53.046;5.668;2023-09-12T01:37:40;101359.72;;;21.07;100.00
67099;BME280;54288;53.046;5.668;2023-09-12T01:40:07;101355.34;;;21.06;100.00
67099;BME280;54288;53.046;5.668;2023-09-12T01:42:39;101358.09;;;21.04;100.00
67099;BME280;54288;53.046;5.668;2023-09-12T01:45:09;101341.66;;;20.96;100.00
67099;BME280;54288;53.046;5.668;2023-09-12T01:47:37;101349.72;;;20.95;100.00
67099;BME280;54288;53.046;5.668;2023-09-12T01:50:05;101354.16;;;20.96;100.00
67099;BME280;54288;53.046;5.668;2023-09-12T01:52:32;101327.44;;;20.80;100.00
67099;BME280;54288;53.046;5.668;2023-09-12T01:54:59;101343.66;;;20.93;100.00
67099;BME280;54288;53.046;5.668;2023-09-12T01:57:25;101346.56;;;20.88;100.00
67099;BME280;54288;53.046;5.668;2023-09-12T01:59:51;101350.31;;;20.84;100.00
67099;BME280;54288;53.046;5.668;2023-09-12T02:02:18;101340.31;;;20.72;100.00
67099;BME280;54288;53.046;5.668;2023-09-12T02:07:37;101358.19;;;20.70;100.00
67099;BME280;54288;53.046;5.668;2023-09-12T02:10:03;101350.44;;;20.66;100.00
67099;BME280;54288;53.046;5.668;2023-09-12T02:12:31;101344.41;;;20.62;100.00
67099;BME280;54288;53.046;5.668;2023-09-12T02:14:57;101347.16;;;20.61;100.00
67099;BME280;54288;53.046;5.668;2023-09-12T02:17:22;101352.66;;;20.58;100.00
67099;BME280;54288;53.046;5.668;2023-09-12T02:19:48;101335.44;;;20.48;100.00
67099;BME280;54288;53.046;5.668;2023-09-12T02:22:14;101339.06;;;20.47;100.00
67099;BME280;54288;53.046;5.668;2023-09-12T02:24:40;101339.06;;;20.47;100.00
67099;BME280;54288;53.046;5.668;2023-09-12T02:27:05;101342.66;;;20.46;100.00
67099;BME280;54288;53.046;5.668;2023-09-12T02:29:31;101348.22;;;20.41;100.00
67099;BME280;54288;53.046;5.668;2023-09-12T02:32:00;101350.19;;;20.38;100.00
67099;BME280;54288;53.046;5.668;2023-09-12T02:34:25;101342.50;;;20.32;100.00
67099;BME280;54288;53.046;5.668;2023-09-12T02:36:51;101335.81;;;20.25;100.00
67099;BME280;54288;53.046;5.668;2023-09-12T02:39:17;101344.34;;;20.31;100.00
67099;BME280;54288;53.046;5.668;2023-09-12T02:41:43;101342.00;;;20.25;100.00
67099;BME280;54288;53.046;5.668;2023-09-12T02:44:08;101352.53;;;20.27;100.00
67099;BME280;54288;53.046;5.668;2023-09-12T02:46:37;101355.44;;;20.22;100.00
67099;BME280;54288;53.046;5.668;2023-09-12T02:49:02;101351.13;;;20.20;100.00
67099;BME280;54288;53.046;5.668;2023-09-12T02:51:28;101350.19;;;20.21;100.00
67099;BME280;54288;53.046;5.668;2023-09-12T02:53:55;101356.63;;;20.17;100.00
67099;BME280;54288;53.046;5.668;2023-09-12T02:56:20;101343.84;;;20.23;100.00
67099;BME280;54288;53.046;5.668;2023-09-12T02:58:47;101337.22;;;20.15;100.00
67099;BME280;54288;53.046;5.668;2023-09-12T03:01:17;101352.72;;;20.24;100.00
67099;BME280;54288;53.046;5.668;2023-09-12T03:03:46;101337.38;;;20.12;100.00
67099;BME280;54288;53.046;5.668;2023-09-12T03:06:14;101352.00;;;20.20;100.00
67099;BME280;54288;53.046;5.668;2023-09-12T03:08:41;101338.00;;;20.17;100.00
67099;BME280;54288;53.046;5.668;2023-09-12T03:11:07;101342.22;;;20.21;100.00
67099;BME280;54288;53.046;5.668;2023-09-12T03:13:34;101343.16;;;20.20;100.00
67099;BME280;54288;53.046;5.668;2023-09-12T03:16:00;101338.94;;;20.16;100.00
67099;BME280;54288;53.046;5.668;2023-09-12T03:18:26;101343.47;;;20.14;100.00
67099;BME280;54288;53.046;5.668;2023-09-12T03:20:53;101333.94;;;20.10;100.00
67099;BME280;54288;53.046;5.668;2023-09-12T03:23:19;101336.69;;;20.08;100.00
67099;BME280;54288;53.046;5.668;2023-09-12T03:25:45;101340.25;;;20.07;100.00
67099;BME280;54288;53.046;5.668;2023-09-12T03:28:12;101331.88;;;19.98;100.00
67099;BME280;54288;53.046;5.668;2023-09-12T03:30:38;101343.31;;;20.00;100.00
67099;BME280;54288;53.046;5.668;2023-09-12T03:33:05;101336.56;;;19.93;100.00
67099;BME280;54288;53.046;5.668;2023-09-12T03:35:32;101343.44;;;19.97;100.00
67099;BME280;54288;53.046;5.668;2023-09-12T03:37:58;101339.00;;;19.97;100.00
67099;BME280;54288;53.046;5.668;2023-09-12T03:40:24;101326.25;;;19.87;100.00
67099;BME280;54288;53.046;5.668;2023-09-12T03:42:50;101334.53;;;19.98;100.00
67099;BME280;54288;53.046;5.668;2023-09-12T03:45:16;101332.75;;;19.98;100.00
67099;BME280;54288;53.046;5.668;2023-09-12T03:47:41;101338.91;;;19.99;100.00
67099;BME280;54288;53.046;5.668;2023-09-12T03:50:09;101316.47;;;19.87;100.00
67099;BME280;54288;53.046;5.668;2023-09-12T03:52:35;101329.47;;;19.93;100.00
67099;BME280;54288;53.046;5.668;2023-09-12T03:55:00;101324.53;;;19.86;100.00
67099;BME280;54288;53.046;5.668;2023-09-12T03:57:26;101344.63;;;19.91;100.00
67099;BME280;54288;53.046;5.668;2023-09-12T03:59:52;101325.72;;;19.80;100.00
67099;BME280;54288;53.046;5.668;2023-09-12T04:02:18;101347.38;;;19.90;100.00
67099;BME280;54288;53.046;5.668;2023-09-12T04:04:44;101327.25;;;19.84;100.00
67099;BME280;54288;53.046;5.668;2023-09-12T04:07:10;101345.47;;;19.92;100.00
67099;BME280;54288;53.046;5.668;2023-09-12T04:09:35;101344.78;;;19.88;100.00
67099;BME280;54288;53.046;5.668;2023-09-12T04:12:01;101328.91;;;19.87;100.00
67099;BME280;54288;53.046;5.668;2023-09-12T04:14:27;101339.47;;;19.88;100.00
67099;BME280;54288;53.046;5.668;2023-09-12T04:16:53;101337.56;;;19.90;100.00
67099;BME280;54288;53.046;5.668;2023-09-12T04:19:19;101335.16;;;19.86;100.00
67099;BME280;54288;53.046;5.668;2023-09-12T04:21:45;101331.81;;;19.82;100.00
67099;BME280;54288;53.046;5.668;2023-09-12T04:24:10;101322.81;;;19.85;100.00
67099;BME280;54288;53.046;5.668;2023-09-12T04:26:36;101331.47;;;19.88;100.00
67099;BME280;54288;53.046;5.668;2023-09-12T04:29:02;101330.72;;;19.86;100.00
67099;BME280;54288;53.046;5.668;2023-09-12T04:31:28;101317.09;;;19.75;100.00
67099;BME280;54288;53.046;5.668;2023-09-12T04:33:54;101324.91;;;19.78;100.00
67099;BME280;54288;53.046;5.668;2023-09-12T04:36:21;101324.59;;;19.84;100.00
67099;BME280;54288;53.046;5.668;2023-09-12T04:38:47;101319.53;;;19.80;100.00
67099;BME280;54288;53.046;5.668;2023-09-12T04:41:13;101321.94;;;19.84;100.00
67099;BME280;54288;53.046;5.668;2023-09-12T04:43:43;101322.94;;;19.82;100.00
67099;BME280;54288;53.046;5.668;2023-09-12T04:46:11;101330.84;;;19.83;100.00
67099;BME280;54288;53.046;5.668;2023-09-12T04:48:38;101328.38;;;19.80;100.00
67099;BME280;54288;53.046;5.668;2023-09-12T04:51:04;101313.81;;;19.70;100.00
67099;BME280;54288;53.046;5.668;2023-09-12T04:53:31;101321.41;;;19.78;100.00
67099;BME280;54288;53.046;5.668;2023-09-12T04:56:02;101328.13;;;19.85;100.00
67099;BME280;54288;53.046;5.668;2023-09-12T04:58:28;101326.16;;;19.71;100.00
67099;BME280;54288;53.046;5.668;2023-09-12T05:00:55;101335.00;;;19.72;100.00
67099;BME280;54288;53.046;5.668;2023-09-12T05:03:22;101334.13;;;19.71;100.00
67099;BME280;54288;53.046;5.668;2023-09-12T05:05:48;101325.59;;;19.65;100.00
67099;BME280;54288;53.046;5.668;2023-09-12T05:08:16;101324.69;;;19.66;100.00
67099;BME280;54288;53.046;5.668;2023-09-12T05:10:44;101321.31;;;19.62;100.00
67099;BME280;54288;53.046;5.668;2023-09-12T05:13:10;101299.50;;;19.56;100.00
67099;BME280;54288;53.046;5.668;2023-09-12T05:15:37;101313.94;;;19.67;100.00
67099;BME280;54288;53.046;5.668;2023-09-12T05:18:07;101307.88;;;19.65;100.00
67099;BME280;54288;53.046;5.668;2023-09-12T05:20:34;101319.84;;;19.74;100.00
67099;BME280;54288;53.046;5.668;2023-09-12T05:22:59;101310.06;;;19.74;100.00
67099;BME280;54288;53.046;5.668;2023-09-12T05:25:25;101324.19;;;19.75;100.00
67099;BME280;54288;53.046;5.668;2023-09-12T05:27:52;101320.16;;;19.68;100.00
67099;BME280;54288;53.046;5.668;2023-09-12T05:30:18;101328.69;;;19.74;100.00
67099;BME280;54288;53.046;5.668;2023-09-12T05:32:44;101317.41;;;19.69;100.00
67099;BME280;54288;53.046;5.668;2023-09-12T05:35:10;101336.41;;;19.79;100.00
67099;BME280;54288;53.046;5.668;2023-09-12T05:37:36;101332.75;;;19.81;100.00
67099;BME280;54288;53.046;5.668;2023-09-12T05:40:02;101322.81;;;19.85;100.00
67099;BME280;54288;53.046;5.668;2023-09-12T05:42:28;101332.25;;;19.90;100.00
67099;BME280;54288;53.046;5.668;2023-09-12T05:44:54;101336.56;;;19.93;100.00
67099;BME280;54288;53.046;5.668;2023-09-12T05:47:21;101348.06;;;19.93;100.00
67099;BME280;54288;53.046;5.668;2023-09-12T05:49:46;101339.84;;;19.98;100.00
67099;BME280;54288;53.046;5.668;2023-09-12T05:52:12;101340.41;;;20.04;100.00
67099;BME280;54288;53.046;5.668;2023-09-12T05:54:42;101342.72;;;20.12;100.00
67099;BME280;54288;53.046;5.668;2023-09-12T05:57:09;101337.31;;;20.13;100.00
67099;BME280;54288;53.046;5.668;2023-09-12T05:59:38;101329.56;;;20.09;100.00
67099;BME280;54288;53.046;5.668;2023-09-12T06:02:05;101350.38;;;20.18;100.00
67099;BME280;54288;53.046;5.668;2023-09-12T06:04:33;101343.09;;;20.21;100.00
67099;BME280;54288;53.046;5.668;2023-09-12T06:06:59;101354.28;;;20.28;100.00
67099;BME280;54288;53.046;5.668;2023-09-12T06:09:25;101352.38;;;20.30;100.00
67099;BME280;54288;53.046;5.668;2023-09-12T06:11:50;101341.56;;;20.33;100.00
67099;BME280;54288;53.046;5.668;2023-09-12T06:14:16;101338.84;;;20.34;100.00
67099;BME280;54288;53.046;5.668;2023-09-12T06:16:42;101339.53;;;20.38;100.00
67099;BME280;54288;53.046;5.668;2023-09-12T06:19:07;101339.94;;;20.47;100.00
67099;BME280;54288;53.046;5.668;2023-09-12T06:21:33;101343.09;;;20.54;100.00
67099;BME280;54288;53.046;5.668;2023-09-12T06:24:19;101341.22;;;20.56;100.00
67099;BME280;54288;53.046;5.668;2023-09-12T06:26:46;101350.00;;;20.58;100.00
67099;BME280;54288;53.046;5.668;2023-09-12T06:29:13;101349.03;;;20.59;100.00
67099;BME280;54288;53.046;5.668;2023-09-12T06:31:39;101355.94;;;20.63;100.00
67099;BME280;54288;53.046;5.668;2023-09-12T06:34:07;101355.59;;;20.69;100.00
67099;BME280;54288;53.046;5.668;2023-09-12T06:36:33;101349.94;;;20.75;100.00
67099;BME280;54288;53.046;5.668;2023-09-12T06:38:59;101355.97;;;20.78;100.00
67099;BME280;54288;53.046;5.668;2023-09-12T06:41:26;101356.66;;;20.82;100.00
67099;BME280;54288;53.046;5.668;2023-09-12T06:43:53;101357.41;;;20.84;100.00
67099;BME280;54288;53.046;5.668;2023-09-12T06:46:19;101357.22;;;20.88;100.00
67099;BME280;54288;53.046;5.668;2023-09-12T06:48:45;101364.94;;;20.93;100.00
67099;BME280;54288;53.046;5.668;2023-09-12T06:51:11;101365.72;;;20.95;100.00
67099;BME280;54288;53.046;5.668;2023-09-12T06:53:38;101365.38;;;21.01;100.00
67099;BME280;54288;53.046;5.668;2023-09-12T06:56:05;101358.69;;;21.09;100.00
67099;BME280;54288;53.046;5.668;2023-09-12T06:58:31;101350.63;;;21.11;100.00
67099;BME280;54288;53.046;5.668;2023-09-12T07:01:07;101356.56;;;21.16;100.00
67099;BME280;54288;53.046;5.668;2023-09-12T07:03:34;101359.41;;;21.28;100.00
67099;BME280;54288;53.046;5.668;2023-09-12T07:06:01;101352.50;;;21.40;100.00
67099;BME280;54288;53.046;5.668;2023-09-12T07:08:29;101337.19;;;21.59;100.00
67099;BME280;54288;53.046;5.668;2023-09-12T07:10:55;101350.78;;;21.99;100.00
67099;BME280;54288;53.046;5.668;2023-09-12T07:13:22;101352.31;;;22.33;100.00
67099;BME280;54288;53.046;5.668;2023-09-12T07:15:50;101347.75;;;22.49;100.00
67099;BME280;54288;53.046;5.668;2023-09-12T07:18:16;101349.50;;;22.78;100.00
67099;BME280;54288;53.046;5.668;2023-09-12T07:20:41;101352.50;;;23.00;100.00
67099;BME280;54288;53.046;5.668;2023-09-12T07:23:07;101355.19;;;23.14;100.00
67099;BME280;54288;53.046;5.668;2023-09-12T07:25:41;101352.69;;;23.11;100.00
67099;BME280;54288;53.046;5.668;2023-09-12T07:28:09;101351.59;;;23.01;100.00
67099;BME280;54288;53.046;5.668;2023-09-12T07:30:35;101357.47;;;23.06;100.00
67099;BME280;54288;53.046;5.668;2023-09-12T07:33:03;101369.31;;;23.02;100.00
67099;BME280;54288;53.046;5.668;2023-09-12T07:35:32;101375.16;;;22.94;100.00
67099;BME280;54288;53.046;5.668;2023-09-12T07:37:57;101378.28;;;22.87;100.00
67099;BME280;54288;53.046;5.668;2023-09-12T07:40:23;101376.31;;;22.76;100.00
67099;BME280;54288;53.046;5.668;2023-09-12T07:42:49;101379.16;;;22.73;100.00
67099;BME280;54288;53.046;5.668;2023-09-12T07:45:14;101385.38;;;22.74;100.00
67099;BME280;54288;53.046;5.668;2023-09-12T07:47:40;101387.16;;;22.73;100.00
67099;BME280;54288;53.046;5.668;2023-09-12T07:50:06;101397.38;;;22.67;100.00
67099;BME280;54288;53.046;5.668;2023-09-12T07:52:32;101396.88;;;22.60;100.00
67099;BME280;54288;53.046;5.668;2023-09-12T07:55:02;101396.59;;;22.65;100.00
67099;BME280;54288;53.046;5.668;2023-09-12T07:57:29;101377.69;;;22.54;100.00
67099;BME280;54288;53.046;5.668;2023-09-12T07:59:56;101399.94;;;22.68;100.00
67099;BME280;54288;53.046;5.668;2023-09-12T08:02:22;101403.97;;;22.75;100.00
67099;BME280;54288;53.046;5.668;2023-09-12T08:04:49;101397.38;;;22.81;100.00
67099;BME280;54288;53.046;5.668;2023-09-12T08:07:16;101399.94;;;22.96;100.00
67099;BME280;54288;53.046;5.668;2023-09-12T08:09:56;101406.81;;;23.28;100.00
67099;BME280;54288;53.046;5.668;2023-09-12T08:12:27;101400.94;;;23.50;100.00
67099;BME280;54288;53.046;5.668;2023-09-12T08:14:54;101385.56;;;23.53;100.00
67099;BME280;54288;53.046;5.668;2023-09-12T08:17:21;101405.97;;;23.68;100.00
67099;BME280;54288;53.046;5.668;2023-09-12T08:19:47;101408.72;;;23.67;100.00
67099;BME280;54288;53.046;5.668;2023-09-12T08:22:13;101398.28;;;23.76;100.00
67099;BME280;54288;53.046;5.668;2023-09-12T08:24:39;101396.81;;;23.99;100.00
67099;BME280;54288;53.046;5.668;2023-09-12T08:27:05;101416.59;;;24.48;100.00
67099;BME280;54288;53.046;5.668;2023-09-12T08:29:32;101416.66;;;24.60;100.00
67099;BME280;54288;53.046;5.668;2023-09-12T08:31:59;101422.91;;;24.47;100.00
67099;BME280;54288;53.046;5.668;2023-09-12T08:34:27;101419.25;;;24.48;100.00
67099;BME280;54288;53.046;5.668;2023-09-12T08:36:53;101429.00;;;24.36;100.00
67099;BME280;54288;53.046;5.668;2023-09-12T08:39:27;101424.63;;;24.48;100.00
67099;BME280;54288;53.046;5.668;2023-09-12T08:41:54;101431.66;;;24.63;100.00
67099;BME280;54288;53.046;5.668;2023-09-12T08:44:23;101423.63;;;24.63;99.62
67099;BME280;54288;53.046;5.668;2023-09-12T08:46:48;101433.69;;;24.72;99.20
67099;BME280;54288;53.046;5.668;2023-09-12T08:49:15;101440.88;;;24.71;98.53
67099;BME280;54288;53.046;5.668;2023-09-12T08:51:41;101431.50;;;24.52;97.86
67099;BME280;54288;53.046;5.668;2023-09-12T08:54:07;101431.09;;;24.58;97.31
67099;BME280;54288;53.046;5.668;2023-09-12T08:56:40;101434.06;;;24.53;97.68
67099;BME280;54288;53.046;5.668;2023-09-12T08:59:10;101432.56;;;24.49;97.64
67099;BME280;54288;53.046;5.668;2023-09-12T09:01:36;101432.66;;;24.48;97.50
67099;BME280;54288;53.046;5.668;2023-09-12T09:04:03;101444.34;;;24.47;97.51
67099;BME280;54288;53.046;5.668;2023-09-12T09:06:31;101437.06;;;24.49;98.17
67099;BME280;54288;53.046;5.668;2023-09-12T09:09:09;101442.47;;;24.61;97.84
67099;BME280;54288;53.046;5.668;2023-09-12T09:11:35;101432.28;;;24.66;96.94
67099;BME280;54288;53.046;5.668;2023-09-12T09:14:02;101435.28;;;24.87;95.50
67099;BME280;54288;53.046;5.668;2023-09-12T09:16:29;101424.13;;;24.93;94.91
67099;BME280;54288;53.046;5.668;2023-09-12T09:19:05;101418.69;;;25.07;94.22
67099;BME280;54288;53.046;5.668;2023-09-12T09:21:36;101423.16;;;25.06;93.14
67099;BME280;54288;53.046;5.668;2023-09-12T09:24:07;101421.66;;;25.02;93.00
67099;BME280;54288;53.046;5.668;2023-09-12T09:26:46;101423.81;;;25.10;92.99
67099;BME280;54288;53.046;5.668;2023-09-12T09:29:16;101419.63;;;25.31;92.28
67099;BME280;54288;53.046;5.668;2023-09-12T09:31:44;101427.41;;;25.46;91.43
67099;BME280;54288;53.046;5.668;2023-09-12T09:34:14;101425.34;;;25.50;89.87
67099;BME280;54288;53.046;5.668;2023-09-12T09:36:41;101410.03;;;25.52;90.06
67099;BME280;54288;53.046;5.668;2023-09-12T09:39:09;101412.66;;;25.64;89.76
67099;BME280;54288;53.046;5.668;2023-09-12T09:41:36;101427.84;;;25.76;88.47
67099;BME280;54288;53.046;5.668;2023-09-12T09:44:03;101430.28;;;25.92;88.55
67099;BME280;54288;53.046;5.668;2023-09-12T09:46:29;101422.75;;;25.97;87.08
67099;BME280;54288;53.046;5.668;2023-09-12T09:48:55;101422.81;;;26.08;85.32
67099;BME280;54288;53.046;5.668;2023-09-12T09:51:21;101421.22;;;26.05;84.97
67099;BME280;54288;53.046;5.668;2023-09-12T09:53:51;101421.22;;;26.05;85.29
67099;BME280;54288;53.046;5.668;2023-09-12T09:56:17;101413.63;;;26.10;86.44
67099;BME280;54288;53.046;5.668;2023-09-12T09:58:56;101421.84;;;26.09;85.38
67099;BME280;54288;53.046;5.668;2023-09-12T10:01:26;101424.28;;;26.12;86.58
67099;BME280;54288;53.046;5.668;2023-09-12T10:03:57;101432.53;;;25.98;87.29
67099;BME280;54288;53.046;5.668;2023-09-12T10:06:23;101433.50;;;25.97;86.97
67099;BME280;54288;53.046;5.668;2023-09-12T10:08:54;101443.59;;;25.93;86.51
67099;BME280;54288;53.046;5.668;2023-09-12T10:11:23;101448.00;;;25.82;85.85
67099;BME280;54288;53.046;5.668;2023-09-12T10:13:53;101454.13;;;25.84;86.71
67099;BME280;54288;53.046;5.668;2023-09-12T10:16:24;101436.41;;;25.81;85.74
67099;BME280;54288;53.046;5.668;2023-09-12T10:19:23;101441.88;;;25.92;86.38
67099;BME280;54288;53.046;5.668;2023-09-12T10:24:25;101423.75;;;26.07;85.08
67099;BME280;54288;53.046;5.668;2023-09-12T10:26:52;101430.66;;;26.22;84.89
67099;BME280;54288;53.046;5.668;2023-09-12T10:29:18;101434.53;;;26.18;83.89
67099;BME280;54288;53.046;5.668;2023-09-12T10:31:45;101435.25;;;26.09;83.57
67099;BME280;54288;53.046;5.668;2023-09-12T10:34:14;101421.94;;;26.07;83.57
67099;BME280;54288;53.046;5.668;2023-09-12T10:36:41;101427.28;;;26.31;84.87
67099;BME280;54288;53.046;5.668;2023-09-12T10:39:09;101416.59;;;26.42;83.99
67099;BME280;54288;53.046;5.668;2023-09-12T10:41:40;101432.19;;;26.71;82.67
67099;BME280;54288;53.046;5.668;2023-09-12T10:44:16;101428.16;;;27.10;81.37
67099;BME280;54288;53.046;5.668;2023-09-12T10:46:44;101420.03;;;27.22;80.37
67099;BME280;54288;53.046;5.668;2023-09-12T10:49:12;101428.97;;;27.23;80.43
67099;BME280;54288;53.046;5.668;2023-09-12T10:51:40;101428.94;;;27.12;80.12
67099;BME280;54288;53.046;5.668;2023-09-12T10:54:07;101432.34;;;27.03;78.93
67099;BME280;54288;53.046;5.668;2023-09-12T10:56:36;101424.84;;;26.84;79.76
67099;BME280;54288;53.046;5.668;2023-09-12T11:01:31;101433.78;;;26.74;80.73
67099;BME280;54288;53.046;5.668;2023-09-12T11:03:57;101433.53;;;26.77;80.62
67099;BME280;54288;53.046;5.668;2023-09-12T11:06:29;101437.06;;;26.77;80.61
67099;BME280;54288;53.046;5.668;2023-09-12T11:11:49;101437.97;;;26.89;80.04
67099;BME280;54288;53.046;5.668;2023-09-12T11:14:15;101440.06;;;27.07;79.43
67099;BME280;54288;53.046;5.668;2023-09-12T11:20:02;101440.59;;;27.77;77.04
67099;BME280;54288;53.046;5.668;2023-09-12T11:22:31;101436.50;;;27.62;75.16
67099;BME280;54288;53.046;5.668;2023-09-12T11:25:01;101438.09;;;27.53;75.35
67099;BME280;54288;53.046;5.668;2023-09-12T11:30:24;101436.03;;;27.46;75.52
67099;BME280;54288;53.046;5.668;2023-09-12T11:32:51;101436.03;;;27.46;74.66
67099;BME280;54288;53.046;5.668;2023-09-12T11:35:26;101437.94;;;27.66;74.68
67099;BME280;54288;53.046;5.668;2023-09-12T11:38:01;101434.44;;;28.08;74.45
67099;BME280;54288;53.046;5.668;2023-09-12T11:43:00;101444.13;;;27.99;73.77
67099;BME280;54288;53.046;5.668;2023-09-12T11:45:27;101444.78;;;27.70;72.31
67099;BME280;54288;53.046;5.668;2023-09-12T11:47:53;101448.00;;;27.53;72.96
67099;BME280;54288;53.046;5.668;2023-09-12T11:50:32;101447.78;;;27.34;74.05
67099;BME280;54288;53.046;5.668;2023-09-12T11:53:06;101446.03;;;27.11;75.36
67099;BME280;54288;53.046;5.668;2023-09-12T11:55:42;101453.13;;;27.01;76.50
67099;BME280;54288;53.046;5.668;2023-09-12T11:58:10;101453.34;;;26.87;76.81
67099;BME280;54288;53.046;5.668;2023-09-12T12:00:37;101453.47;;;26.85;77.57
67099;BME280;54288;53.046;5.668;2023-09-12T12:03:04;101457.13;;;26.84;78.04
67099;BME280;54288;53.046;5.668;2023-09-12T12:05:30;101451.13;;;26.81;77.81
67099;BME280;54288;53.046;5.668;2023-09-12T12:07:57;101452.13;;;26.91;78.17
67099;BME280;54288;53.046;5.668;2023-09-12T12:10:24;101448.63;;;27.23;75.74
67099;BME280;54288;53.046;5.668;2023-09-12T12:12:53;101447.78;;;27.56;75.62
67099;BME280;54288;53.046;5.668;2023-09-12T12:15:19;101447.50;;;27.59;78.67
67099;BME280;54288;53.046;5.668;2023-09-12T12:17:45;101443.84;;;27.49;79.41
67099;BME280;54288;53.046;5.668;2023-09-12T12:20:11;101425.50;;;27.32;80.71
67099;BME280;54288;53.046;5.668;2023-09-12T12:22:39;101445.72;;;27.26;81.93
67099;BME280;54288;53.046;5.668;2023-09-12T12:25:09;101442.41;;;27.23;83.03
67099;BME280;54288;53.046;5.668;2023-09-12T12:27:36;101438.69;;;27.13;81.23
67099;BME280;54288;53.046;5.668;2023-09-12T12:30:04;101431.34;;;27.04;80.49
67099;BME280;54288;53.046;5.668;2023-09-12T12:32:30;101426.84;;;27.04;79.84
67099;BME280;54288;53.046;5.668;2023-09-12T12:34:56;101433.72;;;27.19;79.34
67099;BME280;54288;53.046;5.668;2023-09-12T12:37:28;101422.91;;;27.52;79.50
67099;BME280;54288;53.046;5.668;2023-09-12T12:39:56;101432.47;;;27.56;78.64
67099;BME280;54288;53.046;5.668;2023-09-12T12:42:22;101421.56;;;27.58;78.33
67099;BME280;54288;53.046;5.668;2023-09-12T12:44:53;101420.00;;;27.44;77.23
67099;BME280;54288;53.046;5.668;2023-09-12T12:47:20;101423.59;;;27.23;76.04
67099;BME280;54288;53.046;5.668;2023-09-12T12:49:50;101413.44;;;27.26;78.07
67099;BME280;54288;53.046;5.668;2023-09-12T12:52:16;101423.06;;;27.40;75.90
67099;BME280;54288;53.046;5.668;2023-09-12T12:54:42;101416.22;;;27.36;75.58
67099;BME280;54288;53.046;5.668;2023-09-12T12:57:10;101418.81;;;27.26;75.49
67099;BME280;54288;53.046;5.668;2023-09-12T12:59:38;101415.03;;;27.18;77.02
67099;BME280;54288;53.046;5.668;2023-09-12T13:02:05;101422.34;;;27.05;76.82
67099;BME280;54288;53.046;5.668;2023-09-12T13:04:37;101416.97;;;27.05;76.44
67099;BME280;54288;53.046;5.668;2023-09-12T13:07:04;101416.19;;;27.03;75.91
67099;BME280;54288;53.046;5.668;2023-09-12T13:09:30;101416.97;;;27.16;76.77